ENVA

Trondheim , Værnes Airport

Trondheim, Norway
METAR ENVA 190920Z 25007KT CAVOK 16/13 Q0995 NOSIG RMK WIND 670FT 28003KT
Observed Flight Rules
Sep-19 @ 09:20 UTC (23 minutes ago) Visual Flight Rules
Wind Visibility Clouds
250° at 7 knots 10,000+ meters
  • Clear skies
Temperatures Readings
Current 16°C / 61°F
Dewpoint 13°C / 55°F
Humidity 83%
Altimeter 29.38" Hg
Pressure 995 hPa
Elevation 17
METAR ENVA 190920Z 25007KT CAVOK 16/13 Q0995 NOSIG RMK WIND 670FT 28003KT
Observed Flight Rules
Sep-19 @ 09:20 UTC
(23 minutes ago)
VFR
Wind Visibility
250° at 7 knots 10,000+ meters
Clouds
  • Clear skies
Temperature Dewpoint
16°C / 61°F 13°C / 55°F
Humidity Altimeter Pressure
83% 29.38" Hg 995 hPa